Time;durP1;ratioP1;P1;durP2;ratioP2;P2;SDS_P1;SDS_P2;PMS_P1;PMS_P2;Temp;Humidity;BMP_temperature;BMP_pressure;BME280_temperature;BME280_humidity;BME280_pressure;Samples;Min_cycle;Max_cycle;Signal;HPM_P1;HPM_P2
2021/09/02 00:01:48;;;;;;;10.73;7.53;;;;;;;14.00;79.64;101448.63;6196761;23;20017;-82
2021/09/02 00:04:15;;;;;;;12.13;6.93;;;;;;;13.93;79.88;101448.97;6230641;23;20083;-82
2021/09/02 00:06:41;;;;;;;11.93;6.68;;;;;;;13.90;80.01;101454.41;6241812;23;20024;-80
2021/09/02 00:09:08;;;;;;;12.35;6.75;;;;;;;13.85;80.27;101443.13;6244864;23;20032;-81
2021/09/02 00:11:34;;;;;;;10.13;7.05;;;;;;;13.81;80.20;101452.16;6245205;23;20020;-82
2021/09/02 00:14:01;;;;;;;12.95;6.75;;;;;;;13.78;80.88;101449.63;6243071;23;20032;-82
2021/09/02 00:16:28;;;;;;;12.90;7.55;;;;;;;13.76;80.86;101447.03;6245222;23;20013;-82
2021/09/02 00:18:54;;;;;;;12.32;7.03;;;;;;;13.77;81.02;101461.22;6241022;23;20047;-82
2021/09/02 00:21:21;;;;;;;12.90;7.53;;;;;;;13.76;81.11;101454.16;6225024;23;20031;-82
2021/09/02 00:23:47;;;;;;;12.15;7.18;;;;;;;13.70;80.75;101445.50;6224602;23;20024;-82
2021/09/02 00:26:14;;;;;;;17.45;7.57;;;;;;;13.70;80.76;101447.28;6224683;23;20029;-84
2021/09/02 00:28:41;;;;;;;11.88;7.30;;;;;;;13.69;80.71;101445.59;6221167;23;20027;-83
2021/09/02 00:31:08;;;;;;;10.15;7.20;;;;;;;13.63;81.12;101443.19;6223980;23;20030;-82
2021/09/02 00:33:34;;;;;;;12.20;7.30;;;;;;;13.62;81.14;101452.09;6221802;23;20075;-85
2021/09/02 00:36:01;;;;;;;11.50;6.93;;;;;;;13.54;81.50;101444.41;6223805;23;20017;-84
2021/09/02 00:38:28;;;;;;;12.90;7.28;;;;;;;13.57;81.77;101448.75;6224001;23;20027;-83
2021/09/02 00:40:54;;;;;;;11.20;7.13;;;;;;;13.57;81.84;101457.59;6223945;23;20102;-84
2021/09/02 00:43:21;;;;;;;12.43;7.18;;;;;;;13.57;82.10;101449.63;6224224;23;20049;-83
2021/09/02 00:45:48;;;;;;;10.88;7.03;;;;;;;13.56;82.22;101441.69;6222596;23;20047;-83
2021/09/02 00:48:15;;;;;;;13.73;7.38;;;;;;;13.55;82.08;101446.16;6224311;23;20031;-83
2021/09/02 00:50:42;;;;;;;9.73;7.35;;;;;;;13.52;82.21;101450.75;6222780;23;20095;-84
2021/09/02 00:53:09;;;;;;;11.50;7.03;;;;;;;13.54;82.09;101451.53;6197282;23;20016;-84
2021/09/02 00:55:36;;;;;;;12.38;7.82;;;;;;;13.52;82.04;101446.31;6223545;23;20017;-83
2021/09/02 00:58:03;;;;;;;13.35;8.07;;;;;;;13.54;82.25;101455.06;6224016;23;20056;-83
2021/09/02 01:00:30;;;;;;;13.95;8.32;;;;;;;13.52;82.31;101454.28;6224259;23;20076;-84
2021/09/02 01:02:57;;;;;;;13.60;8.50;;;;;;;13.49;82.28;101451.75;6223569;23;20032;-84
2021/09/02 01:05:24;;;;;;;13.00;8.13;;;;;;;13.48;82.63;101452.69;6223854;23;20039;-84
2021/09/02 01:07:51;;;;;;;14.25;7.72;;;;;;;13.45;82.75;101446.63;6223133;23;20099;-83
2021/09/02 01:10:20;;;;;;;10.27;7.32;;;;;;;13.41;83.07;101445.88;6217859;23;20055;-83
2021/09/02 01:12:49;;;;;;;13.85;8.68;;;;;;;13.41;83.16;101445.88;6213335;23;20020;-82
2021/09/02 01:15:22;;;;;;;12.73;8.50;;;;;;;13.40;83.07;101451.25;6206872;23;20020;-83
2021/09/02 01:17:51;;;;;;;14.48;8.10;;;;;;;13.38;83.60;101456.63;6210161;23;20489;-83
2021/09/02 01:20:21;;;;;;;15.63;8.60;;;;;;;13.35;83.69;101454.13;6208296;23;20020;-83
2021/09/02 01:22:50;;;;;;;13.85;8.60;;;;;;;13.33;83.55;101448.00;6224241;23;20349;-83
2021/09/02 01:25:20;;;;;;;14.50;7.95;;;;;;;13.30;83.86;101446.34;6224689;23;20454;-83
2021/09/02 01:27:49;;;;;;;14.82;8.43;;;;;;;13.28;83.94;101449.97;6224373;23;20059;-83
2021/09/02 01:30:16;;;;;;;15.07;8.50;;;;;;;13.29;83.99;101446.41;6223464;23;20554;-83
2021/09/02 01:32:46;;;;;;;10.15;7.32;;;;;;;13.28;84.33;101445.53;6222817;23;20024;-83
2021/09/02 01:35:13;;;;;;;11.82;7.95;;;;;;;13.28;84.18;101442.00;6222887;23;20055;-83
2021/09/02 01:37:44;;;;;;;15.80;8.05;;;;;;;13.22;84.27;101431.63;6224219;23;20625;-83
2021/09/02 01:40:18;;;;;;;19.92;8.45;;;;;;;13.25;84.58;101431.47;6223479;23;20050;-83
2021/09/02 01:42:44;;;;;;;12.52;8.50;;;;;;;13.25;84.87;101437.66;6224043;23;20035;-83
2021/09/02 01:45:12;;;;;;;12.05;8.05;;;;;;;13.24;84.75;101435.06;6223324;23;20420;-83
2021/09/02 01:47:39;;;;;;;12.63;8.15;;;;;;;13.22;85.19;101437.78;6223239;23;20032;-83
2021/09/02 01:50:23;;;;;;;12.93;7.68;;;;;;;13.20;85.21;101434.34;6221997;23;20017;-83
2021/09/02 01:52:53;;;;;;;13.95;8.48;;;;;;;13.19;85.21;101431.75;6223261;23;20068;-83
2021/09/02 01:55:21;;;;;;;13.45;7.90;;;;;;;13.16;85.63;101423.91;6222161;23;20099;-83
2021/09/02 01:57:49;;;;;;;15.23;8.52;;;;;;;13.16;85.16;101426.56;6221989;23;20020;-83
2021/09/02 02:00:17;;;;;;;13.63;8.38;;;;;;;13.16;85.42;101426.56;6221551;23;20026;-83
2021/09/02 02:02:43;;;;;;;13.75;9.13;;;;;;;13.17;85.34;101423.84;6222800;23;20029;-83
2021/09/02 02:05:12;;;;;;;14.95;8.38;;;;;;;13.16;85.63;101431.88;6223364;23;20024;-83
2021/09/02 02:07:40;;;;;;;15.25;8.75;;;;;;;13.15;85.65;101424.81;6223239;23;20107;-83
2021/09/02 02:10:10;;;;;;;17.85;8.95;;;;;;;13.14;85.31;101431.03;6222973;23;20016;-83
2021/09/02 02:12:37;;;;;;;;;;;;;;;13.12;85.78;101430.22;6223299;23;20013;-83
2021/09/02 02:15:05;;;;;;;13.60;8.18;;;;;;;13.13;85.54;101431.97;6222038;23;20356;-83
2021/09/02 02:17:32;;;;;;;14.50;8.80;;;;;;;13.08;85.90;101426.81;6222502;23;20020;-83
2021/09/02 02:19:59;;;;;;;15.23;8.75;;;;;;;13.06;85.88;101430.50;6223278;23;20096;-83
2021/09/02 02:22:26;;;;;;;16.77;8.80;;;;;;;13.05;86.01;101426.97;6228797;23;20073;-82
2021/09/02 02:24:52;;;;;;;15.55;8.73;;;;;;;13.02;86.26;101428.88;6228289;23;20056;-83
2021/09/02 02:27:19;;;;;;;12.07;8.18;;;;;;;13.00;86.39;101427.16;6201155;23;20072;-83
2021/09/02 02:29:46;;;;;;;17.35;9.38;;;;;;;13.02;86.39;101428.88;6225408;23;20076;-83
2021/09/02 02:32:12;;;;;;;19.70;8.82;;;;;;;12.98;86.51;101425.47;6235964;23;20064;-83
2021/09/02 02:34:39;;;;;;;16.13;9.18;;;;;;;12.96;86.95;101433.50;6235000;23;20064;-83
2021/09/02 02:37:06;;;;;;;19.48;9.18;;;;;;;12.96;86.80;101419.34;6220142;23;20020;-83
2021/09/02 02:39:37;;;;;;;15.85;9.05;;;;;;;12.95;86.66;101417.63;6234825;23;20068;-83
2021/09/02 02:42:06;;;;;;;12.90;8.63;;;;;;;12.93;87.08;101423.00;6210337;23;20024;-82
2021/09/02 02:44:33;;;;;;;15.20;8.80;;;;;;;12.91;87.23;101430.16;6232983;23;20036;-83
2021/09/02 02:47:00;;;;;;;14.80;8.80;;;;;;;12.92;87.24;101426.59;6221895;23;20072;-83
2021/09/02 02:49:27;;;;;;;15.85;9.00;;;;;;;12.93;87.12;101424.78;6222137;23;20017;-83
2021/09/02 02:51:54;;;;;;;14.52;8.50;;;;;;;12.90;86.73;101423.16;6222064;23;20019;-83
2021/09/02 02:54:20;;;;;;;17.75;8.43;;;;;;;12.86;87.01;101424.19;6221760;23;20019;-83
2021/09/02 02:56:47;;;;;;;17.00;9.30;;;;;;;12.86;87.28;101424.19;6232902;23;20249;-83
2021/09/02 02:59:14;;;;;;;14.68;9.13;;;;;;;12.83;87.72;101413.66;6239419;23;20012;-83
2021/09/02 03:01:41;;;;;;;19.58;9.45;;;;;;;12.84;87.71;101414.53;6240359;23;20032;-83
2021/09/02 03:04:08;;;;;;;15.52;9.23;;;;;;;12.77;87.38;101413.91;6235450;23;20063;-83
2021/09/02 03:06:34;;;;;;;14.65;9.65;;;;;;;12.76;88.20;101414.81;6224158;23;20020;-83
2021/09/02 03:09:02;;;;;;;15.15;9.60;;;;;;;12.74;88.25;101418.50;6223677;23;20076;-83
2021/09/02 03:11:30;;;;;;;15.88;9.43;;;;;;;12.71;88.48;101414.16;6223544;23;20036;-83
2021/09/02 03:13:57;;;;;;;16.42;9.43;;;;;;;12.69;88.76;101417.81;6222375;23;20099;-84
2021/09/02 03:16:24;;;;;;;16.20;9.20;;;;;;;12.70;88.72;101417.75;6222576;23;20021;-84
2021/09/02 03:18:51;;;;;;;13.63;8.52;;;;;;;12.69;88.58;101417.81;6223228;23;20081;-83
2021/09/02 03:21:17;;;;;;;14.60;8.85;;;;;;;12.68;88.75;101424.91;6223853;23;20067;-83
2021/09/02 03:23:44;;;;;;;12.82;8.75;;;;;;;12.71;88.09;101416.81;6198772;23;20079;-84
2021/09/02 03:26:11;;;;;;;16.20;10.25;;;;;;;12.70;88.78;101417.75;6224347;23;20024;-83
2021/09/02 03:28:37;;;;;;;16.98;9.52;;;;;;;12.70;88.87;101415.09;6224382;23;20076;-83
2021/09/02 03:31:04;;;;;;;13.48;9.15;;;;;;;12.69;88.77;101416.00;6194408;23;20017;-83
2021/09/02 03:33:31;;;;;;;15.90;9.85;;;;;;;12.67;88.67;101417.88;6221533;23;20024;-83
2021/09/02 03:35:57;;;;;;;13.30;8.98;;;;;;;12.63;89.25;101411.78;6220929;23;20050;-82
2021/09/02 03:38:24;;;;;;;17.50;9.75;;;;;;;12.62;89.44;101419.81;6220281;23;20031;-82
2021/09/02 03:40:50;;;;;;;14.00;8.98;;;;;;;12.58;89.37;101407.59;6221136;23;20122;-82
2021/09/02 03:43:20;;;;;;;14.25;9.70;;;;;;;12.55;89.10;101415.69;6219853;23;20067;-83
2021/09/02 03:45:48;;;;;;;16.30;9.37;;;;;;;12.51;89.77;101422.03;6220373;23;20027;-82
2021/09/02 03:48:15;;;;;;;18.33;9.50;;;;;;;12.50;90.49;101412.34;6220045;23;20102;-82
2021/09/02 03:50:43;;;;;;;19.25;9.75;;;;;;;12.50;90.17;101409.69;6220124;23;20093;-82
2021/09/02 03:53:10;;;;;;;15.50;9.45;;;;;;;12.48;90.30;101411.53;6221146;23;20021;-82
2021/09/02 03:55:36;;;;;;;16.20;9.15;;;;;;;12.46;90.50;101416.03;6237453;23;20040;-82
2021/09/02 03:58:06;;;;;;;18.77;10.23;;;;;;;12.45;90.48;101419.59;6241856;23;20020;-82
2021/09/02 04:00:33;;;;;;;16.17;9.95;;;;;;;12.44;90.58;101416.09;6216424;23;20033;-82
2021/09/02 04:03:00;;;;;;;15.30;9.65;;;;;;;12.44;90.72;101417.88;6216203;23;20025;-83
2021/09/02 04:05:27;;;;;;;17.52;9.75;;;;;;;12.43;90.80;101417.03;6236938;23;20035;-83
2021/09/02 04:07:54;;;;;;;17.40;10.30;;;;;;;12.41;90.37;101416.22;6228191;23;20166;-83
2021/09/02 04:10:21;;;;;;;16.50;9.77;;;;;;;12.39;90.61;101419.88;6223027;23;20056;-82
2021/09/02 04:12:47;;;;;;;22.42;10.63;;;;;;;12.35;91.05;101419.09;6223063;23;20025;-83
2021/09/02 04:15:14;;;;;;;15.20;9.95;;;;;;;12.33;90.79;101417.44;6223355;23;20017;-82
2021/09/02 04:17:41;;;;;;;14.25;9.93;;;;;;;12.33;91.43;101420.94;6224914;23;20076;-84
2021/09/02 04:20:08;;;;;;;15.40;10.43;;;;;;;12.32;91.24;101421.00;6226582;23;20027;-83
2021/09/02 04:22:34;;;;;;;15.60;10.25;;;;;;;12.29;91.46;101417.53;6227205;23;20096;-83
2021/09/02 04:25:01;;;;;;;14.20;9.80;;;;;;;12.28;91.42;101426.44;6226120;23;20059;-82
2021/09/02 04:27:29;;;;;;;16.08;9.50;;;;;;;12.26;91.44;101428.31;6222478;23;20025;-83
2021/09/02 04:29:55;;;;;;;15.10;9.70;;;;;;;12.26;91.22;101425.66;6220690;23;20020;-83
2021/09/02 04:32:22;;;;;;;16.48;10.23;;;;;;;12.25;91.08;101423.03;6194069;23;20013;-83
2021/09/02 04:34:48;;;;;;;15.82;10.18;;;;;;;12.25;91.94;101425.69;6222306;23;20541;-83
2021/09/02 04:37:15;;;;;;;14.77;10.10;;;;;;;12.24;92.41;101416.88;6221674;23;20028;-83
2021/09/02 04:39:42;;;;;;;16.63;10.18;;;;;;;12.25;92.13;101423.91;6222367;23;20017;-84
2021/09/02 04:42:10;;;;;;;19.42;11.27;;;;;;;12.24;92.06;101419.53;6222385;23;20103;-84
2021/09/02 04:44:37;;;;;;;15.18;9.98;;;;;;;12.23;92.19;101432.84;6221388;23;20352;-84
2021/09/02 04:47:04;;;;;;;22.88;10.93;;;;;;;12.24;92.45;101430.16;6223096;23;20040;-84
2021/09/02 04:49:30;;;;;;;16.13;10.20;;;;;;;12.26;92.50;101424.78;6219989;23;20020;-83
2021/09/02 04:51:57;;;;;;;15.88;10.40;;;;;;;12.28;92.46;101429.09;6194794;23;20025;-83
2021/09/02 04:54:23;;;;;;;13.45;9.55;;;;;;;12.30;92.33;101434.34;6223723;23;20179;-83
2021/09/02 04:56:50;;;;;;;18.88;11.18;;;;;;;12.31;92.09;101441.38;6223905;23;20073;-83
2021/09/02 04:59:18;;;;;;;19.38;10.35;;;;;;;12.33;92.28;101438.69;6222608;23;20029;-83
2021/09/02 05:01:44;;;;;;;15.95;10.13;;;;;;;12.35;92.20;101431.53;6224141;23;20017;-83
2021/09/02 05:04:11;;;;;;;18.67;9.98;;;;;;;12.37;92.24;101440.31;6222635;23;20047;-83
2021/09/02 05:06:38;;;;;;;17.75;10.20;;;;;;;12.40;92.18;101446.38;6223342;23;20052;-83
2021/09/02 05:09:04;;;;;;;16.63;10.80;;;;;;;12.42;92.08;101439.22;6223920;23;20395;-83
2021/09/02 05:11:31;;;;;;;19.27;10.65;;;;;;;12.46;91.57;101439.94;6224341;23;20092;-83
2021/09/02 05:13:58;;;;;;;18.60;10.98;;;;;;;12.47;91.66;101434.56;6225212;23;20019;-83
2021/09/02 05:16:24;;;;;;;16.73;10.27;;;;;;;12.50;91.93;101428.28;6199274;23;20063;-83
2021/09/02 05:18:51;;;;;;;19.42;10.75;;;;;;;12.54;91.66;101444.06;6197061;23;20020;-83
2021/09/02 05:21:18;;;;;;;19.40;11.00;;;;;;;12.56;91.60;101434.25;6198834;23;20021;-83
2021/09/02 05:23:44;;;;;;;18.38;10.60;;;;;;;12.62;91.53;101436.63;6224337;23;20028;-83
2021/09/02 05:26:12;;;;;;;19.85;10.70;;;;;;;12.66;91.48;101442.69;6224015;23;20034;-83
2021/09/02 05:28:39;;;;;;;15.27;10.43;;;;;;;12.71;91.64;101437.22;6224819;23;20067;-83
2021/09/02 05:31:06;;;;;;;17.10;10.52;;;;;;;12.74;91.31;101445.94;6224788;23;20012;-83
2021/09/02 05:33:32;;;;;;;19.77;11.35;;;;;;;12.81;90.85;101451.88;6224846;23;20728;-82
2021/09/02 05:36:01;;;;;;;19.77;11.15;;;;;;;12.83;90.85;101444.69;6228937;23;20075;-82
2021/09/02 05:38:27;;;;;;;17.27;10.75;;;;;;;12.88;90.29;101454.25;6239028;23;20028;-82
2021/09/02 05:40:54;;;;;;;18.27;10.90;;;;;;;12.92;90.20;101457.63;6242819;23;20036;-82
2021/09/02 05:43:22;;;;;;;20.65;11.23;;;;;;;12.98;89.76;101452.94;6233456;23;20068;-83
2021/09/02 05:45:49;;;;;;;20.77;10.30;;;;;;;13.03;89.64;101454.56;6237802;23;20031;-82
2021/09/02 05:48:15;;;;;;;18.23;10.70;;;;;;;13.07;89.89;101451.69;6230941;23;20107;-82
2021/09/02 05:50:43;;;;;;;17.23;10.93;;;;;;;13.12;90.11;101452.38;6237819;23;20047;-81
2021/09/02 05:53:13;;;;;;;17.23;10.52;;;;;;;13.17;90.09;101441.59;6243039;23;20012;-82
2021/09/02 05:55:39;;;;;;;15.07;10.32;;;;;;;13.24;89.57;101451.91;6241959;23;20011;-81
2021/09/02 05:58:06;;;;;;;15.40;10.85;;;;;;;13.32;88.77;101454.25;6242015;23;20031;-82
2021/09/02 06:00:33;;;;;;;19.08;11.35;;;;;;;13.35;88.71;101456.78;6240325;23;20055;-83
2021/09/02 06:03:00;;;;;;;18.83;11.45;;;;;;;13.40;88.54;101456.56;6239776;23;20027;-83
2021/09/02 06:05:27;;;;;;;17.77;10.73;;;;;;;13.45;88.57;101459.94;6239237;23;20044;-82
2021/09/02 06:07:54;;;;;;;15.57;10.90;;;;;;;13.51;88.37;101465.00;6226328;23;20099;-83
2021/09/02 06:10:21;;;;;;;17.88;10.90;;;;;;;13.56;88.15;101461.19;6225226;23;20096;-83
2021/09/02 06:12:47;;;;;;;19.48;10.77;;;;;;;13.63;87.94;101470.66;6197272;23;20104;-83
2021/09/02 06:15:15;;;;;;;19.42;10.30;;;;;;;13.70;87.86;101456.16;6221875;23;20021;-83
2021/09/02 06:17:43;;;;;;;16.13;10.98;;;;;;;13.78;87.75;101452.31;6222683;23;20020;-83
2021/09/02 06:20:10;;;;;;;17.15;10.10;;;;;;;13.86;87.26;101458.13;6223526;23;20144;-83
2021/09/02 06:22:37;;;;;;;18.42;10.63;;;;;;;13.93;86.89;101456.94;6222245;23;20111;-83
2021/09/02 06:25:07;;;;;;;24.95;11.50;;;;;;;13.99;86.28;101459.34;6222992;23;20028;-82
2021/09/02 06:27:35;;;;;;;14.90;9.98;;;;;;;14.05;85.64;101459.06;6198657;23;20478;-82
2021/09/02 06:30:03;;;;;;;17.35;10.32;;;;;;;14.16;86.08;101459.47;6239886;23;20040;-81
2021/09/02 06:32:30;;;;;;;20.80;11.15;;;;;;;14.26;84.98;101466.09;6241837;23;20008;-87
2021/09/02 06:34:56;;;;;;;17.05;10.68;;;;;;;14.36;84.22;101467.41;6220225;23;20060;-87
2021/09/02 06:37:23;;;;;;;16.60;10.73;;;;;;;14.49;83.51;101462.41;6237811;23;20043;-86
2021/09/02 06:39:50;;;;;;;17.33;9.95;;;;;;;14.59;82.87;101462.88;6242131;23;20020;-86
2021/09/02 06:42:17;;;;;;;23.05;10.80;;;;;;;14.70;81.76;101458.75;6212225;23;20052;-87
2021/09/02 06:44:44;;;;;;;14.40;9.73;;;;;;;14.90;81.15;101460.47;6222991;23;20012;-86
2021/09/02 06:47:10;;;;;;;17.83;9.57;;;;;;;15.21;79.42;101449.19;6199394;23;20025;-86
2021/09/02 06:49:37;;;;;;;17.70;10.55;;;;;;;15.52;78.40;101451.19;6227399;23;20065;-88
2021/09/02 06:52:05;;;;;;;14.70;9.10;;;;;;;15.91;77.16;101461.63;6225379;23;20407;-88
2021/09/02 06:54:33;;;;;;;15.70;9.43;;;;;;;16.26;75.42;101461.56;6223396;23;20020;-88
2021/09/02 06:56:59;;;;;;;14.30;8.77;;;;;;;16.57;74.00;101464.31;6221434;23;20127;-89
2021/09/02 06:59:26;;;;;;;15.98;10.65;;;;;;;16.81;72.10;101462.13;6219129;23;20082;-88
2021/09/02 07:01:53;;;;;;;14.35;9.15;;;;;;;17.00;72.46;101461.97;6219466;23;20454;-88
2021/09/02 07:04:20;;;;;;;17.65;8.95;;;;;;;17.16;71.19;101463.66;6221406;23;20019;-89
2021/09/02 07:06:47;;;;;;;12.18;8.43;;;;;;;17.36;71.00;101458.97;6193723;23;20059;-89
2021/09/02 07:09:13;;;;;;;15.05;9.63;;;;;;;17.44;70.18;101467.44;6220732;23;20379;-89
2021/09/02 07:11:42;;;;;;;11.75;7.75;;;;;;;17.49;69.73;101471.53;6222480;23;20028;-89
2021/09/02 07:14:10;;;;;;;15.68;8.73;;;;;;;17.62;69.77;101461.00;6200077;23;20112;-88
2021/09/02 07:16:37;;;;;;;12.75;8.60;;;;;;;17.75;69.07;101455.81;6226247;23;20593;-88
2021/09/02 07:22:45;;;;;;;14.07;8.65;;;;;;;17.81;67.22;101458.94;6219722;23;20023;-88
2021/09/02 07:25:11;;;;;;;16.50;9.02;;;;;;;17.73;67.46;101469.28;6218609;23;20091;-87
2021/09/02 07:27:38;;;;;;;13.57;8.75;;;;;;;17.65;68.33;101463.50;6218295;23;20104;-88
2021/09/02 07:30:06;;;;;;;20.10;10.32;;;;;;;17.64;68.84;101466.28;6218345;23;20111;-88
2021/09/02 07:32:33;;;;;;;12.00;8.45;;;;;;;17.70;69.61;101457.88;6218979;23;20026;-87
2021/09/02 07:35:02;;;;;;;12.85;8.27;;;;;;;17.77;68.85;101465.47;6217887;23;20020;-87
2021/09/02 07:37:32;;;;;;;13.45;8.98;;;;;;;17.78;67.84;101469.03;6217102;23;20016;-88
2021/09/02 07:40:00;;;;;;;14.80;8.63;;;;;;;17.78;67.95;101469.03;6219689;23;20012;-86
2021/09/02 07:42:27;;;;;;;15.10;8.65;;;;;;;17.80;68.49;101465.25;6220935;23;20016;-88
2021/09/02 07:44:55;;;;;;;14.48;9.23;;;;;;;17.87;69.22;101476.50;6221264;23;20023;-87
2021/09/02 07:47:22;;;;;;;14.40;8.15;;;;;;;17.81;68.38;101464.31;6225049;23;20024;-87
2021/09/02 07:49:52;;;;;;;15.02;9.00;;;;;;;17.85;69.07;101462.31;6205709;23;20016;-88
2021/09/02 07:52:18;;;;;;;10.43;8.27;;;;;;;17.79;68.56;101468.03;6227000;23;20025;-88
2021/09/02 07:54:45;;;;;;;14.52;7.90;;;;;;;17.82;68.62;101462.50;6221235;23;20103;-87
2021/09/02 07:57:14;;;;;;;11.65;8.80;;;;;;;17.85;68.24;101465.00;6219311;23;20012;-87
2021/09/02 07:59:41;;;;;;;13.27;8.50;;;;;;;17.82;68.39;101459.81;6221287;23;20097;-88
2021/09/02 08:02:12;;;;;;;12.48;7.95;;;;;;;17.98;69.08;101462.44;6220565;23;20450;-89
2021/09/02 08:04:40;;;;;;;13.45;8.05;;;;;;;18.10;68.74;101456.34;6219015;23;20315;-88
2021/09/02 08:07:07;;;;;;;15.57;8.75;;;;;;;18.19;67.97;101462.00;6220081;23;20020;-88
2021/09/02 08:09:36;;;;;;;13.18;8.52;;;;;;;18.20;68.07;101462.84;6221265;23;20039;-86
2021/09/02 08:12:04;;;;;;;13.75;8.23;;;;;;;18.27;68.60;101457.94;6221092;23;20023;-87
2021/09/02 08:14:30;;;;;;;15.07;8.57;;;;;;;18.42;67.31;101470.41;6221974;23;20036;-87
2021/09/02 08:16:59;;;;;;;13.63;8.10;;;;;;;18.51;68.65;101465.34;6221868;23;20099;-87
2021/09/02 08:19:25;;;;;;;12.10;7.97;;;;;;;18.55;66.92;101466.88;6233199;23;20040;-88
2021/09/02 08:21:52;;;;;;;11.88;8.30;;;;;;;18.53;66.96;101476.84;6241201;23;20015;-87
2021/09/02 08:24:19;;;;;;;12.65;8.20;;;;;;;18.49;67.62;101472.63;6242698;23;20023;-87
2021/09/02 08:26:45;;;;;;;14.18;8.10;;;;;;;18.48;67.29;101476.25;6243407;23;20039;-87
2021/09/02 08:29:13;;;;;;;12.63;7.38;;;;;;;18.51;67.85;101472.53;6244697;23;20024;-88
2021/09/02 08:31:41;;;;;;;11.18;7.20;;;;;;;18.64;68.38;101480.69;6218772;23;20055;-87
2021/09/02 08:34:11;;;;;;;15.23;8.40;;;;;;;18.74;66.58;101473.75;6229581;23;20021;-88
2021/09/02 08:36:39;;;;;;;12.38;8.23;;;;;;;18.75;67.11;101471.00;6218496;23;20088;-86
2021/09/02 08:39:06;;;;;;;13.20;7.80;;;;;;;18.80;67.42;101470.69;6220070;23;20021;-87
2021/09/02 08:41:34;;;;;;;12.45;8.25;;;;;;;18.87;66.88;101472.91;6219691;23;20095;-86
2021/09/02 08:44:02;;;;;;;15.70;8.02;;;;;;;18.99;67.72;101471.25;6198412;23;20059;-87
2021/09/02 08:46:36;;;;;;;10.75;7.38;;;;;;;19.09;67.59;101477.72;6217120;23;20005;-87
2021/09/02 08:49:06;;;;;;;17.67;8.65;;;;;;;19.08;66.69;101475.13;6239436;23;20013;-87
2021/09/02 08:51:36;;;;;;;12.45;8.07;;;;;;;19.06;66.32;101464.50;6224205;23;20076;-88
2021/09/02 08:54:05;;;;;;;11.68;8.05;;;;;;;19.09;66.29;101464.31;6220821;23;20078;-87
2021/09/02 08:56:32;;;;;;;14.23;9.18;;;;;;;19.12;65.21;101472.16;6221180;23;20418;-87
2021/09/02 08:59:00;;;;;;;15.30;8.85;;;;;;;19.10;65.36;101471.41;6221395;23;20064;-87
2021/09/02 09:01:27;;;;;;;12.80;8.07;;;;;;;19.12;65.96;101468.63;6219738;23;20048;-83
2021/09/02 09:03:54;;;;;;;13.98;8.55;;;;;;;19.15;65.67;101471.09;6197404;23;20021;-84
2021/09/02 09:06:28;;;;;;;14.63;8.82;;;;;;;19.11;65.62;101464.22;6225764;23;20047;-84
2021/09/02 09:08:56;;;;;;;14.70;9.02;;;;;;;19.10;66.10;101465.16;6232352;23;20076;-83
2021/09/02 09:11:29;;;;;;;17.40;9.77;;;;;;;19.06;65.14;101459.13;6226571;23;20050;-84
2021/09/02 09:14:12;;;;;;;14.57;9.70;;;;;;;19.02;65.66;101463.00;6230102;23;20714;-83
2021/09/02 09:16:45;;;;;;;11.57;8.95;;;;;;;19.07;65.55;101460.00;6241916;23;20023;-83
2021/09/02 09:19:49;;;;;;;16.30;9.57;;;;;;;19.11;65.43;101466.88;6234677;23;20051;-84
2021/09/02 09:22:18;;;;;;;20.23;9.20;;;;;;;19.17;65.57;101459.31;6225272;23;20099;-84
2021/09/02 09:25:03;;;;;;;15.88;9.00;;;;;;;19.28;65.31;101458.59;6224792;23;20063;-83
2021/09/02 09:27:53;;;;;;;14.35;9.07;;;;;;;19.37;65.02;101452.59;6224736;23;20024;-83
2021/09/02 09:30:23;;;;;;;13.03;8.67;;;;;;;19.47;65.04;101456.41;6223797;23;20036;-83
2021/09/02 09:32:58;;;;;;;13.70;9.15;;;;;;;19.59;64.44;101452.03;6220177;23;20436;-84
2021/09/02 09:35:34;;;;;;;13.35;9.10;;;;;;;19.67;63.36;101456.91;6222115;23;20021;-83
2021/09/02 09:38:08;;;;;;;14.90;9.10;;;;;;;19.68;63.07;101456.78;6228354;23;20055;-84
2021/09/02 09:40:48;;;;;;;11.65;8.98;;;;;;;19.74;63.34;101450.13;6228685;23;20101;-82
2021/09/02 09:43:20;;;;;;;15.88;9.32;;;;;;;19.81;63.37;101443.38;6234543;23;20029;-82
2021/09/02 09:45:50;;;;;;;13.73;8.70;;;;;;;19.90;63.07;101448.97;6239469;23;20035;-82
2021/09/02 09:48:20;;;;;;;13.57;9.27;;;;;;;20.03;62.58;101453.50;6239151;23;20020;-82
2021/09/02 09:51:10;;;;;;;14.20;9.25;;;;;;;20.09;62.31;101453.09;6239209;23;20039;-83
2021/09/02 09:53:39;;;;;;;13.05;8.57;;;;;;;20.19;61.84;101452.31;6239290;23;20024;-83
2021/09/02 09:56:07;;;;;;;12.48;8.93;;;;;;;20.28;61.59;101457.06;6239055;23;20028;-84
2021/09/02 09:58:35;;;;;;;14.63;8.45;;;;;;;20.38;61.13;101446.53;6229668;23;20020;-84
2021/09/02 10:01:04;;;;;;;17.02;9.05;;;;;;;20.44;60.85;101445.25;6193563;23;20110;-84
2021/09/02 10:03:32;;;;;;;15.75;8.85;;;;;;;20.46;60.24;101438.75;6220616;23;20072;-83
2021/09/02 10:06:07;;;;;;;13.45;8.98;;;;;;;20.50;60.79;101434.03;6227683;23;20024;-84
2021/09/02 10:08:44;;;;;;;13.07;8.95;;;;;;;20.58;60.55;101437.91;6224958;23;20024;-84
2021/09/02 10:11:15;;;;;;;14.15;8.68;;;;;;;20.69;60.74;101442.50;6223621;23;20096;-84
2021/09/02 10:13:42;;;;;;;;;;;;;;;20.77;59.77;101436.56;6223113;23;20068;-84
2021/09/02 10:16:10;;;;;;;12.25;8.68;;;;;;;20.78;59.04;101432.91;6222053;23;19922;-84
2021/09/02 10:18:46;;;;;;;11.13;7.50;;;;;;;20.81;58.81;101432.66;6224259;23;20017;-84
2021/09/02 10:21:15;;;;;;;12.75;7.82;;;;;;;20.84;58.28;101429.75;6234456;23;20028;-81
2021/09/02 10:23:44;;;;;;;13.60;9.07;;;;;;;20.91;57.83;101433.72;6239200;23;20023;-81
2021/09/02 10:26:35;;;;;;;12.82;8.40;;;;;;;20.92;59.16;101430.06;6234713;22;20021;-83
2021/09/02 10:29:36;;;;;;;14.65;8.63;;;;;;;20.82;59.34;101429.00;6233592;23;20024;-82
2021/09/02 10:32:28;;;;;;;12.73;8.55;;;;;;;20.68;59.78;101416.56;6240546;22;20044;-82
2021/09/02 10:35:12;;;;;;;13.55;8.75;;;;;;;20.81;59.89;101411.13;6220800;23;20025;-83
2021/09/02 10:37:43;;;;;;;13.63;8.82;;;;;;;20.87;59.50;101408.00;6193719;23;20044;-83
2021/09/02 10:40:15;;;;;;;11.60;8.07;;;;;;;21.02;59.33;101412.22;6194670;23;20021;-81
2021/09/02 10:42:48;;;;;;;14.00;8.15;;;;;;;21.14;58.32;101408.63;6216836;23;20024;-82
2021/09/02 10:45:24;;;;;;;12.95;8.50;;;;;;;21.08;58.32;101401.00;6216857;23;20088;-82
2021/09/02 10:47:55;;;;;;;14.20;8.13;;;;;;;21.25;58.07;101402.47;6219275;23;20099;-83
2021/09/02 10:50:24;;;;;;;12.30;8.38;;;;;;;21.32;56.85;101401.88;6219795;23;20012;-82
2021/09/02 10:52:51;;;;;;;15.05;7.95;;;;;;;21.28;57.27;101402.22;6218918;23;20092;-83
2021/09/02 10:55:30;;;;;;;10.68;7.47;;;;;;;21.58;56.47;101397.16;6221280;23;20009;-83
2021/09/02 10:58:00;;;;;;;8.97;7.47;;;;;;;21.86;55.26;101393.22;6220001;23;20051;-83
2021/09/02 11:00:37;;;;;;;12.50;8.70;;;;;;;22.07;54.73;101392.50;6220362;23;20406;-83
2021/09/02 11:03:14;;;;;;;12.68;8.23;;;;;;;21.96;55.49;101391.50;6194550;23;20414;-83
2021/09/02 11:05:51;;;;;;;10.45;7.43;;;;;;;21.70;55.67;101396.25;6221231;23;20031;-83
2021/09/02 11:08:34;;;;;;;11.65;8.38;;;;;;;21.48;56.00;101398.00;6222793;23;20024;-83
2021/09/02 11:11:13;;;;;;;14.30;8.40;;;;;;;21.42;56.20;101396.63;6222411;23;20029;-83
2021/09/02 11:13:50;;;;;;;11.52;8.48;;;;;;;21.64;56.23;101387.75;6222242;23;20035;-85
2021/09/02 11:16:21;;;;;;;11.00;7.53;;;;;;;21.97;54.38;101381.56;6221703;23;20041;-83
2021/09/02 11:18:48;;;;;;;;;;;;;;;22.28;53.34;101378.19;6222691;23;20078;-83
2021/09/02 11:21:18;;;;;;;10.00;6.95;;;;;;;22.53;51.72;101374.34;6222805;23;19943;-83
2021/09/02 11:23:48;;;;;;;9.77;6.97;;;;;;;22.55;51.62;101382.31;6222851;23;20055;-84
2021/09/02 11:26:38;;;;;;;12.57;7.97;;;;;;;22.65;51.28;101384.16;6223572;23;20099;-83
2021/09/02 11:29:25;;;;;;;13.80;7.68;;;;;;;22.74;50.99;101380.69;6224423;23;20017;-84